Time;durP1;ratioP1;P1;durP2;ratioP2;P2;SDS_P1;SDS_P2;PMS_P1;PMS_P2;Temp;Humidity;BMP_temperature;BMP_pressure;BME280_temperature;BME280_humidity;BME280_pressure;Samples;Min_cycle;Max_cycle;Signal;HPM_P1;HPM_P2
2023/07/20 00:01:35;;;;;;;3.00;2.60;;;15.50;99.90;;;;;;480879;246;28895;-77
2023/07/20 00:03:36;;;;;;;2.70;2.10;;;15.50;99.90;;;;;;474970;249;28888;-79
2023/07/20 00:05:37;;;;;;;2.63;2.40;;;15.50;99.90;;;;;;480887;247;28862;-79
2023/07/20 00:07:38;;;;;;;3.43;2.13;;;15.50;99.90;;;;;;474952;249;28896;-79
2023/07/20 00:09:40;;;;;;;2.50;2.30;;;15.50;99.90;;;;;;480869;247;28827;-78
2023/07/20 00:11:41;;;;;;;3.30;2.40;;;15.40;99.90;;;;;;480829;246;28850;-80
2023/07/20 00:13:42;;;;;;;2.40;2.20;;;15.40;99.90;;;;;;474863;249;29371;-79
2023/07/20 00:15:43;;;;;;;5.33;2.43;;;15.40;99.90;;;;;;480853;247;29296;-79
2023/07/20 00:17:45;;;;;;;2.30;2.00;;;15.40;99.90;;;;;;480853;246;29363;-80
2023/07/20 00:19:46;;;;;;;2.67;2.40;;;15.30;99.90;;;;;;474955;249;28900;-80
2023/07/20 00:21:47;;;;;;;3.43;2.27;;;15.30;99.90;;;;;;480895;247;28841;-77
2023/07/20 00:23:48;;;;;;;3.23;2.33;;;15.20;99.90;;;;;;480881;246;28798;-80
2023/07/20 00:25:50;;;;;;;3.27;2.50;;;15.20;99.90;;;;;;474926;249;28908;-81
2023/07/20 00:27:51;;;;;;;4.47;2.70;;;15.10;99.90;;;;;;480824;245;28874;-79
2023/07/20 00:29:52;;;;;;;2.80;2.60;;;15.00;99.90;;;;;;474941;249;28939;-79
2023/07/20 00:31:53;;;;;;;2.63;2.10;;;15.00;99.90;;;;;;480706;247;28842;-80
2023/07/20 00:33:55;;;;;;;3.07;2.50;;;15.00;99.90;;;;;;480830;246;28804;-79
2023/07/20 00:35:56;;;;;;;2.80;2.53;;;15.00;99.90;;;;;;474957;249;28995;-77
2023/07/20 00:37:57;;;;;;;3.47;2.67;;;15.00;99.90;;;;;;480877;247;29415;-78
2023/07/20 00:39:58;;;;;;;3.10;2.63;;;14.90;99.90;;;;;;480892;246;29296;-79
2023/07/20 00:42:00;;;;;;;2.53;2.30;;;14.70;99.90;;;;;;480930;246;29482;-77
2023/07/20 00:44:01;;;;;;;3.40;2.73;;;14.80;99.90;;;;;;474978;249;29317;-80
2023/07/20 00:46:02;;;;;;;3.93;2.63;;;14.70;99.90;;;;;;480856;247;28841;-76
2023/07/20 00:48:03;;;;;;;2.73;2.53;;;14.80;99.90;;;;;;482586;242;28768;-78
2023/07/20 00:50:05;;;;;;;3.50;2.33;;;14.80;99.90;;;;;;482496;246;28803;-78
2023/07/20 00:52:06;;;;;;;4.03;2.77;;;14.80;99.90;;;;;;482502;246;28870;-79
2023/07/20 00:54:08;;;;;;;3.63;2.30;;;14.70;99.90;;;;;;482519;246;28754;-78
2023/07/20 00:56:09;;;;;;;4.27;2.60;;;14.70;99.90;;;;;;482392;246;28820;-79
2023/07/20 00:58:10;;;;;;;2.73;2.37;;;14.80;99.90;;;;;;482469;246;28765;-80
2023/07/20 01:00:11;;;;;;;4.73;2.23;;;14.80;99.90;;;;;;482515;246;28757;-79
2023/07/20 01:02:12;;;;;;;2.83;2.63;;;14.80;99.90;;;;;;482470;246;28827;-77
2023/07/20 01:04:13;;;;;;;3.73;2.40;;;14.70;99.90;;;;;;482368;246;29222;-82
2023/07/20 01:06:15;;;;;;;2.60;2.40;;;14.70;99.90;;;;;;482367;246;29367;-81
2023/07/20 01:08:16;;;;;;;2.93;2.53;;;14.70;99.90;;;;;;482380;246;29366;-79
2023/07/20 01:10:17;;;;;;;2.20;2.10;;;14.60;99.90;;;;;;482408;246;28748;-81
2023/07/20 01:12:18;;;;;;;2.77;2.50;;;14.60;99.90;;;;;;482393;246;28860;-79
2023/07/20 01:14:20;;;;;;;3.03;2.73;;;14.60;99.90;;;;;;482372;246;28876;-79
2023/07/20 01:16:21;;;;;;;2.60;2.33;;;14.50;99.90;;;;;;482372;246;28873;-80
2023/07/20 01:18:22;;;;;;;3.80;2.67;;;14.50;99.90;;;;;;482418;246;29160;-77
2023/07/20 01:20:23;;;;;;;2.50;2.30;;;14.40;99.90;;;;;;482453;246;28747;-80
2023/07/20 01:22:25;;;;;;;2.60;2.40;;;14.40;99.90;;;;;;482381;246;28787;-79
2023/07/20 01:24:26;;;;;;;5.80;2.50;;;14.40;99.90;;;;;;482439;246;28756;-79
2023/07/20 01:26:29;;;;;;;2.57;2.37;;;14.40;99.90;;;;;;482371;246;28970;-78
2023/07/20 01:28:28;;;;;;;2.43;2.20;;;14.30;99.90;;;;;;482296;246;29377;-76
2023/07/20 01:30:30;;;;;;;2.33;2.20;;;14.30;99.90;;;;;;482398;246;29218;-79
2023/07/20 01:32:31;;;;;;;3.37;2.50;;;14.20;99.90;;;;;;482399;246;29312;-77
2023/07/20 01:34:32;;;;;;;6.07;2.80;;;14.20;99.90;;;;;;482370;246;29278;-79
2023/07/20 01:36:34;;;;;;;3.00;2.37;;;14.20;99.90;;;;;;482440;246;28798;-79
2023/07/20 01:38:35;;;;;;;2.50;2.00;;;14.20;99.90;;;;;;482471;246;28855;-79
2023/07/20 01:40:36;;;;;;;2.73;2.17;;;14.20;99.90;;;;;;482454;246;28832;-81
2023/07/20 01:42:37;;;;;;;2.47;2.27;;;14.20;99.90;;;;;;482477;246;28823;-80
2023/07/20 01:44:38;;;;;;;2.43;2.23;;;14.10;99.90;;;;;;482446;246;28766;-81
2023/07/20 01:46:40;;;;;;;3.27;2.30;;;14.00;99.90;;;;;;482448;246;28795;-79
2023/07/20 01:48:41;;;;;;;2.90;2.70;;;14.00;99.90;;;;;;482464;246;28812;-78
2023/07/20 01:50:42;;;;;;;3.13;2.10;;;14.00;99.90;;;;;;482386;246;28807;-80
2023/07/20 01:52:43;;;;;;;2.40;2.20;;;13.90;99.90;;;;;;482388;246;29253;-79
2023/07/20 01:54:45;;;;;;;3.13;2.37;;;13.90;99.90;;;;;;482357;246;30092;-80
2023/07/20 01:56:46;;;;;;;2.40;2.20;;;13.90;99.90;;;;;;482367;246;29211;-79
2023/07/20 01:58:47;;;;;;;2.90;2.40;;;13.90;99.90;;;;;;482387;246;29277;-79
2023/07/20 02:00:49;;;;;;;4.10;2.60;;;14.00;99.90;;;;;;482401;246;28839;-79
2023/07/20 02:02:50;;;;;;;2.60;2.20;;;14.00;99.90;;;;;;482402;246;28890;-79
2023/07/20 02:04:51;;;;;;;5.00;2.33;;;13.90;99.90;;;;;;482452;246;28866;-79
2023/07/20 02:06:52;;;;;;;2.40;2.20;;;13.90;99.90;;;;;;482468;246;28860;-78
2023/07/20 02:08:54;;;;;;;2.53;2.33;;;13.80;99.90;;;;;;482462;246;28806;-77
2023/07/20 02:10:55;;;;;;;2.83;2.53;;;13.70;99.90;;;;;;482479;246;28510;-80
2023/07/20 02:12:56;;;;;;;3.40;2.50;;;13.70;99.90;;;;;;482363;246;28788;-79
2023/07/20 02:14:57;;;;;;;3.60;2.33;;;13.60;99.90;;;;;;482369;246;28783;-80
2023/07/20 02:17:00;;;;;;;3.27;2.40;;;13.60;99.90;;;;;;482503;246;28761;-79
2023/07/20 02:19:00;;;;;;;2.77;2.53;;;13.60;99.90;;;;;;482420;246;29278;-77
2023/07/20 02:21:01;;;;;;;3.53;2.70;;;13.50;99.90;;;;;;482470;246;28913;-79
2023/07/20 02:23:02;;;;;;;3.00;2.73;;;13.60;99.90;;;;;;482439;246;28979;-78
2023/07/20 02:25:04;;;;;;;6.90;3.43;;;13.60;99.90;;;;;;482476;246;28810;-79
2023/07/20 02:27:05;;;;;;;2.80;2.40;;;13.50;99.90;;;;;;482474;246;28761;-79
2023/07/20 02:29:08;;;;;;;2.70;2.33;;;13.50;99.90;;;;;;482451;246;28255;-78
2023/07/20 02:31:07;;;;;;;3.83;2.93;;;13.30;99.90;;;;;;482375;246;28743;-79
2023/07/20 02:33:09;;;;;;;2.90;2.23;;;13.40;99.90;;;;;;482484;246;28924;-79
2023/07/20 02:35:10;;;;;;;3.80;2.37;;;13.40;99.90;;;;;;482414;246;28879;-77
2023/07/20 02:37:12;;;;;;;3.77;3.00;;;13.40;99.90;;;;;;482416;246;28754;-78
2023/07/20 02:39:12;;;;;;;6.90;3.77;;;13.30;99.90;;;;;;482369;246;28931;-79
2023/07/20 02:41:14;;;;;;;5.50;2.47;;;13.20;99.90;;;;;;482410;246;28454;-78
2023/07/20 02:43:15;;;;;;;5.83;2.53;;;13.20;99.90;;;;;;482354;246;28961;-81
2023/07/20 02:45:16;;;;;;;4.27;2.93;;;13.30;99.90;;;;;;482419;246;29283;-77
2023/07/20 02:47:17;;;;;;;3.20;2.43;;;13.30;99.90;;;;;;482470;246;29300;-77
2023/07/20 02:49:19;;;;;;;3.30;2.97;;;13.40;99.90;;;;;;482450;246;29161;-78
2023/07/20 02:51:20;;;;;;;2.77;2.57;;;13.30;99.90;;;;;;482401;246;28553;-79
2023/07/20 02:53:21;;;;;;;2.40;2.20;;;13.30;99.90;;;;;;482475;246;28486;-77
2023/07/20 02:55:22;;;;;;;4.63;2.90;;;13.40;99.90;;;;;;482390;246;28408;-78
2023/07/20 02:57:24;;;;;;;3.30;2.90;;;13.40;99.90;;;;;;482459;246;28558;-79
2023/07/20 02:59:25;;;;;;;2.50;2.30;;;13.40;99.90;;;;;;482429;246;28838;-78
2023/07/20 03:01:29;;;;;;;5.00;2.63;;;13.40;99.90;;;;;;482456;246;28338;-79
2023/07/20 03:03:27;;;;;;;5.90;2.80;;;13.40;99.90;;;;;;482207;246;28762;-79
2023/07/20 03:05:29;;;;;;;4.93;2.90;;;13.50;99.90;;;;;;482454;246;28494;-79
2023/07/20 03:07:30;;;;;;;3.60;2.60;;;13.60;99.90;;;;;;482402;246;28337;-79
2023/07/20 03:09:31;;;;;;;2.70;2.50;;;13.60;99.90;;;;;;482452;246;29333;-79
2023/07/20 03:11:33;;;;;;;3.40;2.60;;;13.70;99.90;;;;;;482368;246;30111;-79
2023/07/20 03:13:34;;;;;;;2.87;2.60;;;13.80;99.90;;;;;;482409;246;28806;-79
2023/07/20 03:15:35;;;;;;;2.90;2.70;;;13.90;99.90;;;;;;482383;246;28905;-78
2023/07/20 03:17:36;;;;;;;4.80;3.47;;;13.90;99.90;;;;;;482372;246;28752;-80
2023/07/20 03:19:37;;;;;;;3.17;2.83;;;13.90;99.90;;;;;;482440;246;28792;-79
2023/07/20 03:21:40;;;;;;;2.93;2.43;;;13.90;99.90;;;;;;482405;246;28784;-82
2023/07/20 03:23:40;;;;;;;2.87;2.57;;;14.00;99.90;;;;;;482276;246;28840;-82
2023/07/20 03:25:41;;;;;;;3.13;2.83;;;14.10;99.90;;;;;;482347;246;28886;-81
2023/07/20 03:27:42;;;;;;;3.10;2.50;;;14.20;99.90;;;;;;482374;246;28899;-79
2023/07/20 03:29:44;;;;;;;2.50;2.30;;;14.30;99.90;;;;;;482352;246;28820;-78
2023/07/20 03:31:45;;;;;;;3.67;2.67;;;14.30;99.90;;;;;;482393;246;28783;-80
2023/07/20 03:33:46;;;;;;;3.03;2.70;;;14.30;99.90;;;;;;482392;246;29306;-79
2023/07/20 03:35:47;;;;;;;2.20;2.10;;;14.30;99.90;;;;;;482393;246;29321;-78
2023/07/20 03:37:49;;;;;;;2.63;2.40;;;14.20;99.90;;;;;;482438;246;29296;-78
2023/07/20 03:39:50;;;;;;;3.60;2.80;;;14.30;99.90;;;;;;482310;246;29373;-78
2023/07/20 03:41:51;;;;;;;3.20;2.90;;;14.20;99.90;;;;;;482453;246;28819;-81
2023/07/20 03:43:52;;;;;;;3.10;2.70;;;14.10;99.90;;;;;;482415;246;28793;-78
2023/07/20 03:45:54;;;;;;;4.30;2.67;;;14.10;99.90;;;;;;482344;246;28866;-78
2023/07/20 03:47:55;;;;;;;3.07;2.87;;;14.10;99.90;;;;;;482358;246;28756;-81
2023/07/20 03:49:56;;;;;;;3.43;2.90;;;14.00;99.90;;;;;;482328;246;28903;-80
2023/07/20 03:51:57;;;;;;;3.80;2.57;;;13.90;99.90;;;;;;482378;246;28390;-80
2023/07/20 03:53:59;;;;;;;3.97;2.60;;;13.80;99.90;;;;;;482451;246;28845;-80
2023/07/20 03:56:00;;;;;;;3.70;2.77;;;13.70;99.90;;;;;;482333;246;28795;-80
2023/07/20 03:58:01;;;;;;;2.87;2.60;;;13.70;99.90;;;;;;482466;246;28769;-81
2023/07/20 04:00:04;;;;;;;4.00;2.90;;;13.70;99.90;;;;;;482495;246;29358;-81
2023/07/20 04:02:05;;;;;;;3.30;2.60;;;13.80;99.90;;;;;;482388;246;29451;-81
2023/07/20 04:04:05;;;;;;;5.77;2.70;;;13.80;99.90;;;;;;482488;246;29279;-79
2023/07/20 04:06:06;;;;;;;3.50;2.80;;;13.90;99.90;;;;;;482525;246;28864;-78
2023/07/20 04:08:07;;;;;;;3.07;2.73;;;14.00;99.90;;;;;;482461;246;28784;-78
2023/07/20 04:10:09;;;;;;;3.50;2.87;;;14.10;99.90;;;;;;482412;246;28824;-81
2023/07/20 04:12:10;;;;;;;3.37;2.53;;;14.10;99.90;;;;;;482517;246;28557;-79
2023/07/20 04:14:11;;;;;;;2.90;2.70;;;14.20;99.90;;;;;;482479;246;28760;-80
2023/07/20 04:16:12;;;;;;;3.47;2.60;;;14.30;99.90;;;;;;482504;246;28823;-79
2023/07/20 04:18:14;;;;;;;6.23;3.00;;;14.40;99.90;;;;;;482483;246;28831;-78
2023/07/20 04:20:15;;;;;;;4.67;3.17;;;14.40;99.90;;;;;;482375;246;28789;-78
2023/07/20 04:22:16;;;;;;;5.60;2.83;;;14.40;99.90;;;;;;482403;245;29035;-79
2023/07/20 04:24:17;;;;;;;3.13;2.43;;;14.50;99.90;;;;;;482443;246;28765;-78
2023/07/20 04:26:19;;;;;;;4.50;2.70;;;14.60;99.90;;;;;;482384;246;28483;-80
2023/07/20 04:28:20;;;;;;;3.53;2.60;;;14.60;99.90;;;;;;482439;246;28841;-80
2023/07/20 04:30:22;;;;;;;3.33;2.40;;;14.60;99.90;;;;;;482420;246;28789;-78
2023/07/20 04:32:22;;;;;;;3.33;2.80;;;14.50;99.90;;;;;;482357;246;28801;-79
2023/07/20 04:34:24;;;;;;;3.10;2.80;;;14.50;99.90;;;;;;482414;246;29229;-82
2023/07/20 04:36:25;;;;;;;3.43;2.90;;;14.50;99.90;;;;;;482420;246;29381;-79
2023/07/20 04:38:26;;;;;;;7.07;3.07;;;14.50;99.90;;;;;;482430;246;29310;-77
2023/07/20 04:40:27;;;;;;;3.73;3.00;;;14.50;99.90;;;;;;482452;246;28889;-80
2023/07/20 04:42:29;;;;;;;4.30;2.40;;;14.50;99.90;;;;;;482493;246;28801;-78
2023/07/20 04:44:30;;;;;;;3.03;2.77;;;14.50;99.90;;;;;;482393;246;28799;-78
2023/07/20 04:46:31;;;;;;;2.80;2.60;;;14.50;99.90;;;;;;482391;246;28803;-80
2023/07/20 04:48:32;;;;;;;3.53;3.23;;;14.50;99.90;;;;;;482373;246;28870;-80
2023/07/20 04:50:34;;;;;;;4.37;2.73;;;14.60;99.90;;;;;;482422;246;28866;-79
2023/07/20 04:52:35;;;;;;;6.60;2.60;;;14.60;99.90;;;;;;482354;246;29454;-79
2023/07/20 04:54:36;;;;;;;5.13;2.73;;;14.60;99.90;;;;;;482376;246;28852;-80
2023/07/20 04:56:37;;;;;;;5.90;3.30;;;14.60;99.90;;;;;;482406;246;28824;-78
2023/07/20 04:58:39;;;;;;;3.23;2.90;;;14.60;99.90;;;;;;482431;246;29470;-78
2023/07/20 05:00:40;;;;;;;3.10;2.80;;;14.70;99.90;;;;;;482390;246;29353;-80
2023/07/20 05:02:41;;;;;;;2.90;2.70;;;14.80;99.90;;;;;;482396;246;29273;-77
2023/07/20 05:04:42;;;;;;;3.90;2.87;;;14.70;99.90;;;;;;482362;246;29360;-80
2023/07/20 05:06:44;;;;;;;4.60;2.80;;;14.70;99.90;;;;;;482371;246;28863;-79
2023/07/20 05:08:45;;;;;;;4.30;2.90;;;14.80;99.90;;;;;;482364;246;28887;-79
2023/07/20 05:10:46;;;;;;;3.70;2.53;;;14.80;99.90;;;;;;482185;246;28773;-79
2023/07/20 05:12:48;;;;;;;7.03;3.10;;;14.80;99.90;;;;;;481781;246;29251;-78
2023/07/20 05:14:49;;;;;;;3.67;3.00;;;14.80;99.90;;;;;;482245;246;28757;-80
2023/07/20 05:16:50;;;;;;;3.90;2.80;;;14.80;99.90;;;;;;482414;246;28902;-79
2023/07/20 05:18:51;;;;;;;3.27;2.83;;;14.90;99.90;;;;;;482448;246;29165;-78
2023/07/20 05:20:54;;;;;;;3.63;2.90;;;14.90;99.90;;;;;;482313;246;28785;-78
2023/07/20 05:22:54;;;;;;;4.87;2.50;;;14.90;99.90;;;;;;482236;246;28820;-78
2023/07/20 05:24:55;;;;;;;3.17;2.67;;;14.90;99.90;;;;;;482375;246;29420;-79
2023/07/20 05:26:56;;;;;;;5.90;2.87;;;14.90;99.90;;;;;;482425;246;28914;-81
2023/07/20 05:28:58;;;;;;;3.57;2.83;;;14.90;99.90;;;;;;482453;246;28805;-77
2023/07/20 05:30:59;;;;;;;6.80;3.30;;;14.90;99.90;;;;;;482309;245;28745;-78
2023/07/20 05:33:00;;;;;;;7.03;3.10;;;15.00;99.90;;;;;;482394;246;28909;-78
2023/07/20 05:35:01;;;;;;;2.70;2.30;;;15.10;99.90;;;;;;482370;246;28775;-80
2023/07/20 05:37:03;;;;;;;2.67;2.30;;;15.10;99.90;;;;;;482394;246;28801;-80
2023/07/20 05:39:04;;;;;;;4.93;2.90;;;15.10;99.90;;;;;;482379;246;28812;-79
2023/07/20 05:41:09;;;;;;;5.50;2.57;;;15.10;99.90;;;;;;482405;246;28768;-80
2023/07/20 05:43:06;;;;;;;4.27;2.80;;;15.10;99.90;;;;;;482120;246;28863;-82
2023/07/20 05:45:08;;;;;;;3.43;3.13;;;15.20;99.90;;;;;;482347;246;28926;-79
2023/07/20 05:47:09;;;;;;;4.70;3.40;;;15.20;99.90;;;;;;482384;246;29295;-80
2023/07/20 05:49:10;;;;;;;3.07;2.70;;;15.30;99.90;;;;;;482395;246;29311;-79
2023/07/20 05:51:11;;;;;;;3.40;3.10;;;15.30;99.90;;;;;;482372;246;29303;-80
2023/07/20 05:53:13;;;;;;;2.77;2.50;;;15.30;99.90;;;;;;482441;246;29441;-77
2023/07/20 05:55:14;;;;;;;2.80;2.60;;;15.30;99.90;;;;;;482435;246;28780;-82
2023/07/20 05:57:15;;;;;;;3.60;3.00;;;15.40;99.90;;;;;;482460;246;28775;-80
2023/07/20 05:59:16;;;;;;;4.93;2.97;;;15.40;99.90;;;;;;482439;246;28800;-77
2023/07/20 06:01:19;;;;;;;3.73;2.60;;;15.40;99.90;;;;;;482449;246;28787;-79
2023/07/20 06:03:21;;;;;;;5.83;2.90;;;15.50;99.90;;;;;;482362;246;28877;-80
2023/07/20 06:05:21;;;;;;;5.43;2.70;;;15.50;99.90;;;;;;482274;246;28757;-80
2023/07/20 06:07:21;;;;;;;4.33;3.00;;;15.60;99.90;;;;;;482432;246;28768;-78
2023/07/20 06:09:23;;;;;;;4.47;3.00;;;15.60;99.90;;;;;;482387;246;28895;-80
2023/07/20 06:11:24;;;;;;;4.30;3.30;;;15.70;99.90;;;;;;482365;246;28858;-82
2023/07/20 06:13:26;;;;;;;4.07;3.00;;;15.70;99.90;;;;;;482375;246;29347;-79
2023/07/20 06:15:26;;;;;;;4.87;2.90;;;15.70;99.90;;;;;;482381;246;29450;-80
2023/07/20 06:17:28;;;;;;;5.13;3.20;;;15.80;99.90;;;;;;482405;246;29294;-79
2023/07/20 06:19:29;;;;;;;6.10;2.80;;;15.80;99.90;;;;;;482376;246;28908;-79
2023/07/20 06:21:30;;;;;;;7.07;3.60;;;15.80;99.90;;;;;;482328;246;28760;-79
2023/07/20 06:23:31;;;;;;;6.60;3.67;;;15.90;99.90;;;;;;482344;246;28796;-80
2023/07/20 06:25:33;;;;;;;6.33;3.17;;;15.90;99.90;;;;;;482392;246;28833;-82
2023/07/20 06:27:34;;;;;;;3.53;2.80;;;15.90;99.90;;;;;;482373;246;28760;-81
2023/07/20 06:29:35;;;;;;;4.30;3.33;;;16.00;99.90;;;;;;482386;246;28880;-79
2023/07/20 06:31:36;;;;;;;5.20;3.37;;;16.00;99.90;;;;;;482324;246;28762;-80
2023/07/20 06:33:38;;;;;;;4.10;2.87;;;16.00;99.90;;;;;;482366;246;28757;-79
2023/07/20 06:35:39;;;;;;;5.30;2.87;;;16.00;99.90;;;;;;482373;246;28793;-79
2023/07/20 06:37:40;;;;;;;5.90;2.70;;;16.10;99.90;;;;;;482380;246;29298;-80
2023/07/20 06:39:41;;;;;;;5.00;3.07;;;16.10;99.90;;;;;;482376;246;29308;-80
2023/07/20 06:41:43;;;;;;;3.60;3.03;;;16.10;99.90;;;;;;482377;246;29400;-77
2023/07/20 06:43:44;;;;;;;3.70;3.10;;;16.10;99.90;;;;;;482374;246;29229;-79
2023/07/20 06:45:45;;;;;;;4.47;3.43;;;16.20;99.90;;;;;;482425;246;28880;-79
2023/07/20 06:47:46;;;;;;;3.40;2.70;;;16.30;99.90;;;;;;482373;246;28843;-80
2023/07/20 06:49:48;;;;;;;4.93;3.20;;;16.30;99.90;;;;;;482323;246;28894;-78
2023/07/20 06:51:49;;;;;;;6.03;3.20;;;16.30;99.90;;;;;;482411;246;28762;-79
2023/07/20 06:53:50;;;;;;;4.17;3.03;;;16.40;99.90;;;;;;482321;246;28886;-79
2023/07/20 06:55:51;;;;;;;5.20;2.90;;;16.40;99.90;;;;;;482360;246;28789;-80
2023/07/20 06:57:53;;;;;;;5.67;3.20;;;16.50;99.90;;;;;;482427;246;28906;-79
2023/07/20 06:59:54;;;;;;;3.97;3.40;;;16.60;99.90;;;;;;482442;246;28938;-81
2023/07/20 07:01:55;;;;;;;4.67;2.80;;;16.70;99.90;;;;;;482392;246;28846;-79
2023/07/20 07:03:56;;;;;;;17.17;3.13;;;16.70;99.90;;;;;;482413;246;29227;-79
2023/07/20 07:05:58;;;;;;;3.33;3.00;;;16.70;99.90;;;;;;482389;246;29378;-81
2023/07/20 07:07:59;;;;;;;3.10;2.80;;;16.80;99.90;;;;;;482421;246;29327;-81
2023/07/20 07:10:00;;;;;;;4.13;2.90;;;16.80;99.90;;;;;;482374;246;28867;-80
2023/07/20 07:12:01;;;;;;;6.20;2.97;;;16.90;99.90;;;;;;482376;246;28772;-80
2023/07/20 07:14:03;;;;;;;3.90;2.90;;;16.90;99.90;;;;;;482418;246;28879;-80
2023/07/20 07:16:04;;;;;;;6.73;3.03;;;16.90;99.90;;;;;;482363;246;28852;-79
2023/07/20 07:18:05;;;;;;;4.50;3.07;;;17.00;99.90;;;;;;482372;246;28782;-80
2023/07/20 07:20:07;;;;;;;4.53;2.63;;;17.00;99.90;;;;;;482384;246;28839;-79
2023/07/20 07:22:08;;;;;;;5.20;3.03;;;17.10;99.90;;;;;;482379;246;28758;-81
2023/07/20 07:24:09;;;;;;;10.33;3.37;;;17.20;99.90;;;;;;482404;246;28839;-80
2023/07/20 07:26:10;;;;;;;3.20;2.90;;;17.20;99.90;;;;;;482328;246;29333;-79
2023/07/20 07:28:11;;;;;;;6.37;3.27;;;17.20;99.90;;;;;;482420;246;29371;-81
2023/07/20 07:30:13;;;;;;;4.73;2.43;;;17.20;99.90;;;;;;482356;246;29293;-80
2023/07/20 07:32:14;;;;;;;2.37;2.10;;;17.30;99.90;;;;;;482445;246;29485;-82
2023/07/20 07:34:15;;;;;;;3.60;3.00;;;17.30;99.90;;;;;;482350;246;28833;-81
2023/07/20 07:36:17;;;;;;;2.60;2.40;;;17.30;99.90;;;;;;482432;246;28817;-80
2023/07/20 07:38:18;;;;;;;5.17;2.60;;;17.40;99.90;;;;;;482415;246;28747;-80
2023/07/20 07:40:19;;;;;;;3.90;2.47;;;17.40;99.90;;;;;;482391;246;28836;-80
2023/07/20 07:42:20;;;;;;;3.40;2.57;;;17.40;99.90;;;;;;482422;246;28807;-80
2023/07/20 07:44:22;;;;;;;4.10;2.70;;;17.50;99.90;;;;;;482433;246;28764;-81
2023/07/20 07:46:23;;;;;;;3.63;2.60;;;17.40;99.90;;;;;;482412;246;28944;-80
2023/07/20 07:48:25;;;;;;;2.00;1.80;;;17.50;99.90;;;;;;482433;246;28768;-79
2023/07/20 07:50:26;;;;;;;7.60;2.40;;;17.60;99.90;;;;;;482228;246;29258;-80
2023/07/20 07:52:27;;;;;;;5.67;2.40;;;17.60;99.90;;;;;;482382;246;29368;-81
2023/07/20 07:54:28;;;;;;;2.80;2.60;;;17.60;99.90;;;;;;482438;246;29203;-81
2023/07/20 07:56:29;;;;;;;4.27;2.23;;;17.60;99.90;;;;;;482475;246;28804;-78
2023/07/20 07:58:31;;;;;;;12.20;2.70;;;17.60;99.90;;;;;;482419;246;28759;-81
2023/07/20 08:00:32;;;;;;;4.67;2.50;;;17.60;99.90;;;;;;482387;246;28871;-82
2023/07/20 08:02:33;;;;;;;4.00;2.23;;;17.70;99.90;;;;;;482416;246;28898;-80
2023/07/20 08:04:34;;;;;;;3.50;2.23;;;17.90;99.90;;;;;;482428;246;28748;-79
2023/07/20 08:06:35;;;;;;;4.00;2.57;;;18.00;99.90;;;;;;482411;246;28832;-81
2023/07/20 08:08:37;;;;;;;4.10;2.53;;;18.10;99.90;;;;;;482384;246;28764;-81
2023/07/20 08:10:38;;;;;;;3.00;2.43;;;18.20;99.90;;;;;;482412;246;28856;-81
2023/07/20 08:12:39;;;;;;;3.20;2.30;;;18.10;99.90;;;;;;482431;246;29354;-80
2023/07/20 08:14:41;;;;;;;5.27;2.60;;;18.10;99.90;;;;;;482437;246;29226;-81
2023/07/20 08:16:43;;;;;;;3.00;2.60;;;18.10;99.90;;;;;;482465;246;29296;-79
2023/07/20 08:18:43;;;;;;;4.97;2.60;;;18.20;99.90;;;;;;482384;246;28811;-82
2023/07/20 08:20:44;;;;;;;4.53;2.30;;;18.20;99.90;;;;;;482467;246;28800;-82
2023/07/20 08:22:45;;;;;;;4.93;2.53;;;18.20;99.90;;;;;;482442;246;28799;-80
2023/07/20 08:24:47;;;;;;;2.80;2.37;;;18.30;99.90;;;;;;482481;246;28896;-79
2023/07/20 08:26:48;;;;;;;3.47;2.20;;;18.40;99.90;;;;;;482459;246;28904;-80
2023/07/20 08:28:49;;;;;;;2.50;2.23;;;18.60;99.90;;;;;;482455;246;28856;-83
2023/07/20 08:30:50;;;;;;;3.70;2.50;;;18.60;99.90;;;;;;482481;246;29242;-82
2023/07/20 08:32:52;;;;;;;3.60;2.07;;;18.60;99.90;;;;;;482510;246;29275;-79
2023/07/20 08:34:53;;;;;;;2.40;2.20;;;18.60;99.90;;;;;;482465;246;29367;-81
2023/07/20 08:36:54;;;;;;;4.23;2.10;;;18.70;99.90;;;;;;482474;246;29407;-81
2023/07/20 08:38:55;;;;;;;2.87;2.40;;;18.70;99.90;;;;;;482460;246;28859;-81
2023/07/20 08:40:59;;;;;;;4.23;2.33;;;18.80;99.90;;;;;;482476;246;28839;-80
2023/07/20 08:42:58;;;;;;;3.57;2.33;;;19.00;99.90;;;;;;482322;246;28803;-81
2023/07/20 08:44:59;;;;;;;3.27;2.10;;;19.00;99.90;;;;;;482468;246;28753;-81
2023/07/20 08:47:02;;;;;;;5.50;1.90;;;19.00;99.90;;;;;;482432;246;28843;-81
2023/07/20 08:49:02;;;;;;;3.63;2.13;;;19.00;99.90;;;;;;482307;246;29181;-80
2023/07/20 08:51:03;;;;;;;5.17;2.20;;;19.10;99.90;;;;;;482480;246;28780;-82
2023/07/20 08:53:04;;;;;;;3.40;1.90;;;19.10;99.90;;;;;;482402;246;28796;-80
2023/07/20 08:55:06;;;;;;;2.87;2.10;;;19.20;99.90;;;;;;482390;246;28749;-81
2023/07/20 08:57:07;;;;;;;2.27;1.93;;;19.20;99.90;;;;;;482425;246;29421;-80
2023/07/20 08:59:08;;;;;;;3.80;2.03;;;19.40;99.90;;;;;;482434;246;29272;-81
2023/07/20 09:01:09;;;;;;;4.00;2.20;;;19.50;99.90;;;;;;482452;246;29208;-81
2023/07/20 09:03:10;;;;;;;2.80;2.17;;;19.70;99.90;;;;;;482411;246;28879;-82
2023/07/20 09:05:15;;;;;;;9.13;2.50;;;19.70;99.90;;;;;;482409;246;28744;-81
2023/07/20 09:07:13;;;;;;;4.30;2.13;;;19.60;99.90;;;;;;482316;246;28796;-81
2023/07/20 09:09:14;;;;;;;3.97;2.20;;;19.40;99.90;;;;;;482475;246;28800;-80
2023/07/20 09:11:15;;;;;;;3.53;2.20;;;19.30;99.90;;;;;;482445;246;28866;-82
2023/07/20 09:13:17;;;;;;;3.80;1.93;;;19.40;99.90;;;;;;482471;246;28859;-81
2023/07/20 09:15:19;;;;;;;3.23;2.20;;;19.50;99.90;;;;;;482420;246;28813;-82
2023/07/20 09:17:19;;;;;;;3.50;2.43;;;19.60;99.90;;;;;;482390;246;28776;-81
2023/07/20 09:19:20;;;;;;;2.27;1.87;;;19.70;99.90;;;;;;482467;246;29347;-79
2023/07/20 09:21:22;;;;;;;2.40;2.10;;;19.80;99.90;;;;;;482435;246;29299;-82
2023/07/20 09:23:23;;;;;;;2.43;2.23;;;19.90;99.90;;;;;;482438;246;29332;-81
2023/07/20 09:25:24;;;;;;;2.90;2.00;;;20.20;99.90;;;;;;482419;246;29661;-82
2023/07/20 09:27:25;;;;;;;2.53;2.33;;;20.60;99.90;;;;;;482533;246;28779;-81
2023/07/20 09:29:27;;;;;;;3.27;2.20;;;20.80;99.90;;;;;;482501;246;28813;-82
2023/07/20 09:31:28;;;;;;;4.07;2.20;;;20.70;99.90;;;;;;482473;246;28753;-83
2023/07/20 09:33:29;;;;;;;4.00;2.47;;;20.50;99.90;;;;;;482488;246;28799;-81
2023/07/20 09:35:30;;;;;;;3.53;2.23;;;20.40;99.90;;;;;;481485;246;36324;-84
2023/07/20 09:37:32;;;;;;;2.23;2.03;;;20.40;99.90;;;;;;482479;246;28774;-81
2023/07/20 09:39:33;;;;;;;2.93;2.27;;;20.50;99.90;;;;;;482465;246;28827;-82
2023/07/20 09:41:34;;;;;;;4.33;2.60;;;20.60;99.90;;;;;;482474;246;28854;-84
2023/07/20 09:43:35;;;;;;;2.57;2.07;;;20.70;99.90;;;;;;482500;246;28752;-80
2023/07/20 09:45:37;;;;;;;3.60;2.03;;;20.40;99.90;;;;;;482445;246;29354;-81
2023/07/20 09:47:38;;;;;;;3.33;2.60;;;20.30;99.90;;;;;;482516;246;29355;-82
2023/07/20 09:49:39;;;;;;;2.63;2.10;;;20.30;99.90;;;;;;482509;246;29297;-81
2023/07/20 09:51:42;;;;;;;2.40;2.20;;;20.40;99.90;;;;;;482476;246;28858;-81
2023/07/20 09:53:42;;;;;;;3.97;1.73;;;20.60;99.90;;;;;;482418;246;28794;-83
2023/07/20 09:55:43;;;;;;;6.50;2.53;;;20.50;99.90;;;;;;482471;246;28813;-79
2023/07/20 09:57:44;;;;;;;2.63;2.10;;;20.70;99.90;;;;;;482520;246;28756;-81
2023/07/20 09:59:45;;;;;;;4.60;2.80;;;20.80;99.90;;;;;;482460;246;28866;-82
2023/07/20 10:01:47;;;;;;;2.47;2.27;;;20.90;99.90;;;;;;482423;246;28748;-82
2023/07/20 10:03:48;;;;;;;2.27;2.07;;;21.10;99.90;;;;;;482472;246;28870;-82
2023/07/20 10:05:50;;;;;;;2.33;2.13;;;21.30;99.90;;;;;;482425;246;28824;-82
2023/07/20 10:07:50;;;;;;;2.87;2.30;;;21.40;99.90;;;;;;482425;246;29198;-80
2023/07/20 10:09:52;;;;;;;2.67;2.30;;;21.50;99.90;;;;;;482407;246;29328;-81
2023/07/20 10:11:53;;;;;;;6.00;2.57;;;21.50;99.90;;;;;;482440;246;29306;-80
2023/07/20 10:13:55;;;;;;;3.50;2.23;;;21.60;99.90;;;;;;482498;246;29239;-80
2023/07/20 10:15:55;;;;;;;4.10;2.50;;;21.50;99.90;;;;;;482373;246;28784;-79
2023/07/20 10:17:57;;;;;;;2.20;2.00;;;21.20;99.90;;;;;;482469;246;28833;-81
2023/07/20 10:19:59;;;;;;;4.47;2.20;;;21.20;99.90;;;;;;482472;246;28819;-80
2023/07/20 10:21:59;;;;;;;5.27;2.33;;;21.30;99.90;;;;;;482417;246;28836;-80
2023/07/20 10:24:00;;;;;;;2.17;1.83;;;21.50;99.90;;;;;;482469;246;28858;-81
2023/07/20 10:26:02;;;;;;;3.43;2.23;;;21.60;99.90;;;;;;482477;246;28829;-80
2023/07/20 10:28:03;;;;;;;2.97;2.20;;;21.70;99.90;;;;;;482459;246;28839;-80
2023/07/20 10:30:05;;;;;;;2.70;2.20;;;21.70;99.90;;;;;;482437;246;29449;-80